sensor_id;sensor_type;location;lat;lon;timestamp;P1;durP1;ratioP1;P2;durP2;ratioP2
75932;SDS011;64803;52.356;5.310;2022-12-18T00:01:16;49.50;;;15.70;;
75932;SDS011;64803;52.356;5.310;2022-12-18T00:03:44;63.13;;;18.00;;
75932;SDS011;64803;52.356;5.310;2022-12-18T00:06:10;61.88;;;17.73;;
75932;SDS011;64803;52.356;5.310;2022-12-18T00:08:37;75.55;;;22.55;;
75932;SDS011;64803;52.356;5.310;2022-12-18T00:11:07;89.95;;;25.52;;
75932;SDS011;64803;52.356;5.310;2022-12-18T00:13:34;65.75;;;18.08;;
75932;SDS011;64803;52.356;5.310;2022-12-18T00:16:01;69.57;;;20.58;;
75932;SDS011;64803;52.356;5.310;2022-12-18T00:18:29;70.85;;;20.48;;
75932;SDS011;64803;52.356;5.310;2022-12-18T00:20:58;58.22;;;16.75;;
75932;SDS011;64803;52.356;5.310;2022-12-18T00:23:26;66.38;;;21.90;;
75932;SDS011;64803;52.356;5.310;2022-12-18T00:25:53;63.25;;;16.30;;
75932;SDS011;64803;52.356;5.310;2022-12-18T00:28:19;51.80;;;14.57;;
75932;SDS011;64803;52.356;5.310;2022-12-18T00:30:46;52.08;;;15.95;;
75932;SDS011;64803;52.356;5.310;2022-12-18T00:33:12;69.43;;;20.05;;
75932;SDS011;64803;52.356;5.310;2022-12-18T00:35:38;76.07;;;21.75;;
75932;SDS011;64803;52.356;5.310;2022-12-18T00:38:05;64.45;;;17.92;;
75932;SDS011;64803;52.356;5.310;2022-12-18T00:40:31;85.00;;;23.33;;
75932;SDS011;64803;52.356;5.310;2022-12-18T00:42:57;45.67;;;15.98;;
75932;SDS011;64803;52.356;5.310;2022-12-18T00:45:28;63.15;;;20.73;;
75932;SDS011;64803;52.356;5.310;2022-12-18T00:47:56;49.60;;;15.38;;
75932;SDS011;64803;52.356;5.310;2022-12-18T00:50:23;65.72;;;19.15;;
75932;SDS011;64803;52.356;5.310;2022-12-18T00:52:50;67.20;;;19.42;;
75932;SDS011;64803;52.356;5.310;2022-12-18T00:55:17;76.30;;;22.35;;
75932;SDS011;64803;52.356;5.310;2022-12-18T00:57:44;79.07;;;20.77;;
75932;SDS011;64803;52.356;5.310;2022-12-18T01:00:12;58.85;;;16.95;;
75932;SDS011;64803;52.356;5.310;2022-12-18T01:02:41;62.15;;;17.23;;
75932;SDS011;64803;52.356;5.310;2022-12-18T01:05:09;64.03;;;19.05;;
75932;SDS011;64803;52.356;5.310;2022-12-18T01:07:36;74.00;;;22.05;;
75932;SDS011;64803;52.356;5.310;2022-12-18T01:10:03;34.92;;;13.18;;
75932;SDS011;64803;52.356;5.310;2022-12-18T01:12:31;75.20;;;20.45;;
75932;SDS011;64803;52.356;5.310;2022-12-18T01:14:57;77.68;;;23.30;;
75932;SDS011;64803;52.356;5.310;2022-12-18T01:17:23;65.45;;;18.90;;
75932;SDS011;64803;52.356;5.310;2022-12-18T01:19:49;67.57;;;22.13;;
75932;SDS011;64803;52.356;5.310;2022-12-18T01:22:15;67.15;;;21.60;;
75932;SDS011;64803;52.356;5.310;2022-12-18T01:24:41;72.95;;;20.25;;
75932;SDS011;64803;52.356;5.310;2022-12-18T01:27:07;66.63;;;18.00;;
75932;SDS011;64803;52.356;5.310;2022-12-18T01:29:33;60.55;;;18.27;;
75932;SDS011;64803;52.356;5.310;2022-12-18T01:31:58;38.15;;;13.73;;
75932;SDS011;64803;52.356;5.310;2022-12-18T01:34:29;71.18;;;22.50;;
75932;SDS011;64803;52.356;5.310;2022-12-18T01:36:55;70.30;;;18.50;;
75932;SDS011;64803;52.356;5.310;2022-12-18T01:39:21;50.25;;;15.80;;
75932;SDS011;64803;52.356;5.310;2022-12-18T01:41:47;62.88;;;18.17;;
75932;SDS011;64803;52.356;5.310;2022-12-18T01:50:07;74.50;;;21.13;;
75932;SDS011;64803;52.356;5.310;2022-12-18T01:52:37;87.53;;;23.45;;
75932;SDS011;64803;52.356;5.310;2022-12-18T01:55:04;65.03;;;18.75;;
75932;SDS011;64803;52.356;5.310;2022-12-18T01:57:32;55.72;;;19.35;;
75932;SDS011;64803;52.356;5.310;2022-12-18T02:00:03;79.60;;;21.63;;
75932;SDS011;64803;52.356;5.310;2022-12-18T02:02:39;76.75;;;19.35;;
75932;SDS011;64803;52.356;5.310;2022-12-18T02:05:07;50.63;;;13.68;;
75932;SDS011;64803;52.356;5.310;2022-12-18T02:10:35;53.88;;;16.98;;
75932;SDS011;64803;52.356;5.310;2022-12-18T02:18:19;64.07;;;17.40;;
75932;SDS011;64803;52.356;5.310;2022-12-18T02:26:26;74.05;;;20.10;;
75932;SDS011;64803;52.356;5.310;2022-12-18T02:29:00;75.22;;;19.08;;
75932;SDS011;64803;52.356;5.310;2022-12-18T02:31:32;62.10;;;14.20;;
75932;SDS011;64803;52.356;5.310;2022-12-18T02:34:05;76.28;;;19.85;;
75932;SDS011;64803;52.356;5.310;2022-12-18T02:36:38;58.53;;;17.52;;
75932;SDS011;64803;52.356;5.310;2022-12-18T02:39:09;54.63;;;17.55;;
75932;SDS011;64803;52.356;5.310;2022-12-18T02:41:43;70.80;;;20.73;;
75932;SDS011;64803;52.356;5.310;2022-12-18T02:44:10;51.28;;;16.55;;
75932;SDS011;64803;52.356;5.310;2022-12-18T02:46:46;63.95;;;18.67;;
75932;SDS011;64803;52.356;5.310;2022-12-18T02:49:26;55.15;;;16.25;;
75932;SDS011;64803;52.356;5.310;2022-12-18T02:52:05;62.38;;;16.95;;
75932;SDS011;64803;52.356;5.310;2022-12-18T03:00:33;17.85;;;8.05;;
75932;SDS011;64803;52.356;5.310;2022-12-18T03:03:07;66.13;;;19.52;;
75932;SDS011;64803;52.356;5.310;2022-12-18T03:08:13;59.40;;;18.05;;
75932;SDS011;64803;52.356;5.310;2022-12-18T03:11:06;62.35;;;18.13;;
75932;SDS011;64803;52.356;5.310;2022-12-18T03:13:37;55.72;;;16.08;;
75932;SDS011;64803;52.356;5.310;2022-12-18T03:16:10;55.47;;;16.88;;
75932;SDS011;64803;52.356;5.310;2022-12-18T03:21:08;65.53;;;16.42;;
75932;SDS011;64803;52.356;5.310;2022-12-18T03:23:42;57.65;;;18.02;;
75932;SDS011;64803;52.356;5.310;2022-12-18T03:26:14;50.97;;;18.00;;
75932;SDS011;64803;52.356;5.310;2022-12-18T03:28:47;61.47;;;18.42;;
75932;SDS011;64803;52.356;5.310;2022-12-18T03:31:18;51.45;;;17.38;;
75932;SDS011;64803;52.356;5.310;2022-12-18T03:36:25;41.30;;;14.35;;
75932;SDS011;64803;52.356;5.310;2022-12-18T03:38:52;47.08;;;13.88;;
75932;SDS011;64803;52.356;5.310;2022-12-18T03:41:31;75.43;;;21.15;;
75932;SDS011;64803;52.356;5.310;2022-12-18T03:44:22;48.60;;;13.50;;
75932;SDS011;64803;52.356;5.310;2022-12-18T03:46:58;64.15;;;17.65;;
75932;SDS011;64803;52.356;5.310;2022-12-18T03:50:00;70.75;;;18.95;;
75932;SDS011;64803;52.356;5.310;2022-12-18T03:52:53;60.85;;;17.95;;
75932;SDS011;64803;52.356;5.310;2022-12-18T03:55:27;54.85;;;18.02;;
75932;SDS011;64803;52.356;5.310;2022-12-18T03:58:01;44.13;;;15.55;;
75932;SDS011;64803;52.356;5.310;2022-12-18T04:00:39;35.90;;;13.10;;
75932;SDS011;64803;52.356;5.310;2022-12-18T04:03:08;56.17;;;15.45;;
75932;SDS011;64803;52.356;5.310;2022-12-18T04:05:41;48.10;;;15.73;;
75932;SDS011;64803;52.356;5.310;2022-12-18T04:08:09;52.75;;;17.23;;
75932;SDS011;64803;52.356;5.310;2022-12-18T04:10:39;53.88;;;16.13;;
75932;SDS011;64803;52.356;5.310;2022-12-18T04:13:05;47.83;;;14.90;;
75932;SDS011;64803;52.356;5.310;2022-12-18T04:15:34;53.30;;;18.10;;
75932;SDS011;64803;52.356;5.310;2022-12-18T04:18:03;39.28;;;14.00;;
75932;SDS011;64803;52.356;5.310;2022-12-18T04:20:36;56.72;;;20.25;;
75932;SDS011;64803;52.356;5.310;2022-12-18T04:23:03;37.90;;;12.52;;
75932;SDS011;64803;52.356;5.310;2022-12-18T04:25:29;38.20;;;13.30;;
75932;SDS011;64803;52.356;5.310;2022-12-18T04:28:05;43.08;;;16.20;;
75932;SDS011;64803;52.356;5.310;2022-12-18T04:30:31;44.53;;;14.15;;
75932;SDS011;64803;52.356;5.310;2022-12-18T04:32:58;50.28;;;14.27;;
75932;SDS011;64803;52.356;5.310;2022-12-18T04:35:25;35.25;;;13.75;;
75932;SDS011;64803;52.356;5.310;2022-12-18T04:37:51;35.80;;;13.27;;
75932;SDS011;64803;52.356;5.310;2022-12-18T04:40:17;43.28;;;14.63;;
75932;SDS011;64803;52.356;5.310;2022-12-18T04:42:46;38.50;;;11.98;;
75932;SDS011;64803;52.356;5.310;2022-12-18T04:45:12;37.92;;;11.77;;
75932;SDS011;64803;52.356;5.310;2022-12-18T04:47:38;34.53;;;13.10;;
75932;SDS011;64803;52.356;5.310;2022-12-18T04:50:04;34.28;;;12.88;;
75932;SDS011;64803;52.356;5.310;2022-12-18T04:52:31;31.88;;;11.45;;
75932;SDS011;64803;52.356;5.310;2022-12-18T04:54:57;28.80;;;12.48;;
75932;SDS011;64803;52.356;5.310;2022-12-18T04:57:23;34.20;;;11.35;;
75932;SDS011;64803;52.356;5.310;2022-12-18T04:59:49;32.25;;;11.45;;
75932;SDS011;64803;52.356;5.310;2022-12-18T05:02:15;30.05;;;10.65;;
75932;SDS011;64803;52.356;5.310;2022-12-18T05:04:41;32.65;;;11.98;;
75932;SDS011;64803;52.356;5.310;2022-12-18T05:07:07;32.55;;;10.57;;
75932;SDS011;64803;52.356;5.310;2022-12-18T05:09:33;37.95;;;12.18;;
75932;SDS011;64803;52.356;5.310;2022-12-18T05:12:00;32.17;;;14.15;;
75932;SDS011;64803;52.356;5.310;2022-12-18T05:14:25;33.72;;;10.55;;
75932;SDS011;64803;52.356;5.310;2022-12-18T05:16:53;34.45;;;11.75;;
75932;SDS011;64803;52.356;5.310;2022-12-18T05:19:19;29.13;;;10.57;;
75932;SDS011;64803;52.356;5.310;2022-12-18T05:21:45;30.35;;;9.70;;
75932;SDS011;64803;52.356;5.310;2022-12-18T05:24:11;38.45;;;11.93;;
75932;SDS011;64803;52.356;5.310;2022-12-18T05:26:37;25.58;;;10.48;;
75932;SDS011;64803;52.356;5.310;2022-12-18T05:29:03;30.13;;;9.52;;
75932;SDS011;64803;52.356;5.310;2022-12-18T05:31:29;33.22;;;10.75;;
75932;SDS011;64803;52.356;5.310;2022-12-18T05:33:55;30.05;;;10.30;;
75932;SDS011;64803;52.356;5.310;2022-12-18T05:36:21;25.52;;;10.52;;
75932;SDS011;64803;52.356;5.310;2022-12-18T05:38:47;33.90;;;13.48;;
75932;SDS011;64803;52.356;5.310;2022-12-18T05:41:13;37.35;;;12.02;;
75932;SDS011;64803;52.356;5.310;2022-12-18T05:43:39;28.00;;;9.70;;
75932;SDS011;64803;52.356;5.310;2022-12-18T05:46:06;36.28;;;12.75;;
75932;SDS011;64803;52.356;5.310;2022-12-18T05:48:33;39.83;;;14.30;;
75932;SDS011;64803;52.356;5.310;2022-12-18T05:51:03;32.53;;;11.38;;
75932;SDS011;64803;52.356;5.310;2022-12-18T05:53:31;31.13;;;12.43;;
75932;SDS011;64803;52.356;5.310;2022-12-18T05:56:01;24.95;;;10.55;;
75932;SDS011;64803;52.356;5.310;2022-12-18T05:58:29;27.63;;;11.07;;
75932;SDS011;64803;52.356;5.310;2022-12-18T06:00:56;36.30;;;12.95;;
75932;SDS011;64803;52.356;5.310;2022-12-18T06:03:22;38.88;;;13.10;;
75932;SDS011;64803;52.356;5.310;2022-12-18T06:05:49;23.10;;;10.13;;
75932;SDS011;64803;52.356;5.310;2022-12-18T06:08:15;25.50;;;9.52;;
75932;SDS011;64803;52.356;5.310;2022-12-18T06:10:41;31.02;;;12.27;;
75932;SDS011;64803;52.356;5.310;2022-12-18T06:13:07;26.50;;;10.80;;
75932;SDS011;64803;52.356;5.310;2022-12-18T06:15:35;28.50;;;10.25;;
75932;SDS011;64803;52.356;5.310;2022-12-18T06:20:28;27.05;;;9.07;;
75932;SDS011;64803;52.356;5.310;2022-12-18T06:22:54;26.13;;;8.23;;
75932;SDS011;64803;52.356;5.310;2022-12-18T06:25:20;25.65;;;9.52;;
75932;SDS011;64803;52.356;5.310;2022-12-18T06:27:47;40.78;;;10.70;;
75932;SDS011;64803;52.356;5.310;2022-12-18T06:30:13;29.42;;;9.88;;
75932;SDS011;64803;52.356;5.310;2022-12-18T06:32:40;25.20;;;9.80;;
75932;SDS011;64803;52.356;5.310;2022-12-18T06:35:06;25.23;;;9.07;;
75932;SDS011;64803;52.356;5.310;2022-12-18T06:37:32;26.75;;;9.90;;
75932;SDS011;64803;52.356;5.310;2022-12-18T06:39:58;29.92;;;10.05;;
75932;SDS011;64803;52.356;5.310;2022-12-18T06:42:25;26.38;;;10.05;;
75932;SDS011;64803;52.356;5.310;2022-12-18T06:44:51;23.40;;;10.40;;
75932;SDS011;64803;52.356;5.310;2022-12-18T06:47:17;33.95;;;10.55;;
75932;SDS011;64803;52.356;5.310;2022-12-18T06:49:44;25.75;;;9.10;;
75932;SDS011;64803;52.356;5.310;2022-12-18T06:52:10;22.67;;;10.32;;
75932;SDS011;64803;52.356;5.310;2022-12-18T06:54:36;23.02;;;9.10;;
75932;SDS011;64803;52.356;5.310;2022-12-18T06:57:02;23.98;;;8.65;;
75932;SDS011;64803;52.356;5.310;2022-12-18T06:59:28;26.35;;;10.15;;
75932;SDS011;64803;52.356;5.310;2022-12-18T07:01:54;25.02;;;9.70;;
75932;SDS011;64803;52.356;5.310;2022-12-18T07:04:20;24.27;;;9.20;;
75932;SDS011;64803;52.356;5.310;2022-12-18T07:06:46;29.48;;;11.25;;
75932;SDS011;64803;52.356;5.310;2022-12-18T07:09:12;21.00;;;8.18;;
75932;SDS011;64803;52.356;5.310;2022-12-18T07:11:38;22.52;;;9.15;;
75932;SDS011;64803;52.356;5.310;2022-12-18T07:14:04;23.40;;;8.43;;
75932;SDS011;64803;52.356;5.310;2022-12-18T07:16:30;23.02;;;9.23;;
75932;SDS011;64803;52.356;5.310;2022-12-18T07:18:56;23.23;;;8.48;;
75932;SDS011;64803;52.356;5.310;2022-12-18T07:21:22;24.65;;;7.72;;
75932;SDS011;64803;52.356;5.310;2022-12-18T07:23:49;14.57;;;5.50;;
75932;SDS011;64803;52.356;5.310;2022-12-18T07:26:16;28.80;;;11.13;;
75932;SDS011;64803;52.356;5.310;2022-12-18T07:28:44;23.95;;;8.45;;
75932;SDS011;64803;52.356;5.310;2022-12-18T07:31:14;21.35;;;9.25;;
75932;SDS011;64803;52.356;5.310;2022-12-18T07:33:42;26.95;;;9.48;;
75932;SDS011;64803;52.356;5.310;2022-12-18T07:36:09;23.40;;;9.15;;
75932;SDS011;64803;52.356;5.310;2022-12-18T07:38:36;22.75;;;9.45;;
75932;SDS011;64803;52.356;5.310;2022-12-18T07:41:03;18.90;;;7.38;;
75932;SDS011;64803;52.356;5.310;2022-12-18T07:43:31;20.55;;;8.27;;
75932;SDS011;64803;52.356;5.310;2022-12-18T07:45:58;24.80;;;9.95;;
75932;SDS011;64803;52.356;5.310;2022-12-18T07:48:25;24.00;;;9.48;;
75932;SDS011;64803;52.356;5.310;2022-12-18T07:50:52;25.23;;;10.07;;
75932;SDS011;64803;52.356;5.310;2022-12-18T07:53:18;22.17;;;8.80;;
75932;SDS011;64803;52.356;5.310;2022-12-18T07:55:44;24.98;;;8.65;;
75932;SDS011;64803;52.356;5.310;2022-12-18T07:58:10;23.20;;;8.23;;
75932;SDS011;64803;52.356;5.310;2022-12-18T08:00:36;17.95;;;8.38;;
75932;SDS011;64803;52.356;5.310;2022-12-18T08:03:02;21.58;;;9.05;;
75932;SDS011;64803;52.356;5.310;2022-12-18T08:13:07;15.75;;;6.07;;
75932;SDS011;64803;52.356;5.310;2022-12-18T08:15:33;21.92;;;7.72;;
75932;SDS011;64803;52.356;5.310;2022-12-18T08:17:58;20.90;;;8.48;;
75932;SDS011;64803;52.356;5.310;2022-12-18T08:20:25;28.35;;;11.85;;
75932;SDS011;64803;52.356;5.310;2022-12-18T08:22:51;24.05;;;9.88;;
75932;SDS011;64803;52.356;5.310;2022-12-18T08:25:16;24.17;;;7.93;;
75932;SDS011;64803;52.356;5.310;2022-12-18T08:27:42;19.42;;;8.38;;
75932;SDS011;64803;52.356;5.310;2022-12-18T08:30:09;27.00;;;11.05;;
75932;SDS011;64803;52.356;5.310;2022-12-18T08:32:35;21.35;;;8.82;;
75932;SDS011;64803;52.356;5.310;2022-12-18T08:35:02;26.75;;;9.90;;
75932;SDS011;64803;52.356;5.310;2022-12-18T08:37:28;22.02;;;9.02;;
75932;SDS011;64803;52.356;5.310;2022-12-18T08:39:54;22.25;;;8.93;;
75932;SDS011;64803;52.356;5.310;2022-12-18T08:42:20;20.88;;;9.82;;
75932;SDS011;64803;52.356;5.310;2022-12-18T08:45:05;23.08;;;11.40;;
75932;SDS011;64803;52.356;5.310;2022-12-18T08:47:31;24.80;;;11.50;;
75932;SDS011;64803;52.356;5.310;2022-12-18T08:49:57;23.98;;;8.77;;
75932;SDS011;64803;52.356;5.310;2022-12-18T08:52:23;23.45;;;10.50;;
75932;SDS011;64803;52.356;5.310;2022-12-18T08:54:49;22.40;;;8.38;;
75932;SDS011;64803;52.356;5.310;2022-12-18T08:57:15;22.77;;;9.93;;
75932;SDS011;64803;52.356;5.310;2022-12-18T08:59:41;21.15;;;9.15;;
75932;SDS011;64803;52.356;5.310;2022-12-18T09:02:10;25.95;;;8.70;;
75932;SDS011;64803;52.356;5.310;2022-12-18T09:04:37;22.95;;;9.38;;
75932;SDS011;64803;52.356;5.310;2022-12-18T09:07:03;20.27;;;8.82;;
75932;SDS011;64803;52.356;5.310;2022-12-18T09:09:29;20.92;;;9.70;;
75932;SDS011;64803;52.356;5.310;2022-12-18T09:11:55;18.20;;;8.23;;
75932;SDS011;64803;52.356;5.310;2022-12-18T09:14:21;20.38;;;9.15;;
75932;SDS011;64803;52.356;5.310;2022-12-18T09:16:46;26.95;;;9.95;;
75932;SDS011;64803;52.356;5.310;2022-12-18T09:19:14;21.48;;;8.88;;
75932;SDS011;64803;52.356;5.310;2022-12-18T09:21:40;22.63;;;9.13;;
75932;SDS011;64803;52.356;5.310;2022-12-18T09:24:08;23.05;;;9.45;;
75932;SDS011;64803;52.356;5.310;2022-12-18T09:26:38;21.60;;;8.73;;
75932;SDS011;64803;52.356;5.310;2022-12-18T09:29:04;23.80;;;10.05;;
75932;SDS011;64803;52.356;5.310;2022-12-18T09:31:32;19.60;;;7.38;;
75932;SDS011;64803;52.356;5.310;2022-12-18T09:33:59;16.10;;;7.55;;
75932;SDS011;64803;52.356;5.310;2022-12-18T09:36:25;23.52;;;8.52;;
75932;SDS011;64803;52.356;5.310;2022-12-18T09:38:51;20.95;;;9.95;;
75932;SDS011;64803;52.356;5.310;2022-12-18T09:41:26;20.23;;;8.00;;
75932;SDS011;64803;52.356;5.310;2022-12-18T09:44:00;17.20;;;7.00;;
75932;SDS011;64803;52.356;5.310;2022-12-18T09:49:39;16.20;;;6.97;;
75932;SDS011;64803;52.356;5.310;2022-12-18T09:55:05;18.05;;;8.07;;
75932;SDS011;64803;52.356;5.310;2022-12-18T09:57:42;18.80;;;8.20;;
75932;SDS011;64803;52.356;5.310;2022-12-18T10:02:44;16.45;;;6.90;;
75932;SDS011;64803;52.356;5.310;2022-12-18T10:05:12;14.75;;;5.95;;
75932;SDS011;64803;52.356;5.310;2022-12-18T10:10:33;23.05;;;9.23;;
75932;SDS011;64803;52.356;5.310;2022-12-18T10:13:22;14.65;;;5.13;;
75932;SDS011;64803;52.356;5.310;2022-12-18T10:21:34;19.40;;;6.57;;
75932;SDS011;64803;52.356;5.310;2022-12-18T10:26:45;18.73;;;7.47;;
75932;SDS011;64803;52.356;5.310;2022-12-18T10:29:13;15.40;;;5.13;;
75932;SDS011;64803;52.356;5.310;2022-12-18T10:31:40;17.70;;;7.40;;
75932;SDS011;64803;52.356;5.310;2022-12-18T10:34:11;16.23;;;7.22;;
75932;SDS011;64803;52.356;5.310;2022-12-18T10:36:40;15.23;;;6.22;;
75932;SDS011;64803;52.356;5.310;2022-12-18T10:39:17;14.95;;;6.57;;
75932;SDS011;64803;52.356;5.310;2022-12-18T10:44:55;14.75;;;6.05;;
75932;SDS011;64803;52.356;5.310;2022-12-18T10:47:28;17.42;;;6.40;;
75932;SDS011;64803;52.356;5.310;2022-12-18T10:49:55;19.00;;;7.63;;
75932;SDS011;64803;52.356;5.310;2022-12-18T10:52:21;14.38;;;6.57;;
75932;SDS011;64803;52.356;5.310;2022-12-18T10:54:54;16.98;;;7.45;;
75932;SDS011;64803;52.356;5.310;2022-12-18T10:57:37;16.77;;;5.93;;
75932;SDS011;64803;52.356;5.310;2022-12-18T11:02:44;17.15;;;6.95;;
75932;SDS011;64803;52.356;5.310;2022-12-18T11:05:23;17.42;;;6.55;;
75932;SDS011;64803;52.356;5.310;2022-12-18T11:07:57;17.17;;;6.10;;
75932;SDS011;64803;52.356;5.310;2022-12-18T11:10:35;18.73;;;7.28;;
75932;SDS011;64803;52.356;5.310;2022-12-18T11:13:10;18.90;;;6.95;;
75932;SDS011;64803;52.356;5.310;2022-12-18T11:15:44;16.05;;;6.63;;
75932;SDS011;64803;52.356;5.310;2022-12-18T11:18:16;14.63;;;6.50;;
75932;SDS011;64803;52.356;5.310;2022-12-18T11:20:56;19.23;;;7.55;;
75932;SDS011;64803;52.356;5.310;2022-12-18T11:23:25;16.85;;;7.03;;
75932;SDS011;64803;52.356;5.310;2022-12-18T11:25:56;20.08;;;7.05;;
75932;SDS011;64803;52.356;5.310;2022-12-18T11:28:40;17.85;;;6.03;;
75932;SDS011;64803;52.356;5.310;2022-12-18T11:31:20;18.23;;;6.60;;
75932;SDS011;64803;52.356;5.310;2022-12-18T11:33:54;16.73;;;6.90;;
75932;SDS011;64803;52.356;5.310;2022-12-18T11:36:22;15.77;;;5.72;;
75932;SDS011;64803;52.356;5.310;2022-12-18T11:38:49;15.55;;;6.40;;
75932;SDS011;64803;52.356;5.310;2022-12-18T11:41:30;17.73;;;7.85;;
75932;SDS011;64803;52.356;5.310;2022-12-18T11:44:25;16.20;;;7.47;;
75932;SDS011;64803;52.356;5.310;2022-12-18T11:47:01;19.77;;;8.38;;
75932;SDS011;64803;52.356;5.310;2022-12-18T11:49:35;18.88;;;6.75;;
75932;SDS011;64803;52.356;5.310;2022-12-18T11:52:03;19.30;;;8.35;;
75932;SDS011;64803;52.356;5.310;2022-12-18T11:54:40;18.02;;;6.82;;
75932;SDS011;64803;52.356;5.310;2022-12-18T12:02:14;16.08;;;6.88;;
75932;SDS011;64803;52.356;5.310;2022-12-18T12:07:47;17.98;;;6.30;;
75932;SDS011;64803;52.356;5.310;2022-12-18T12:10:26;14.18;;;5.30;;
75932;SDS011;64803;52.356;5.310;2022-12-18T12:15:54;16.98;;;6.82;;
75932;SDS011;64803;52.356;5.310;2022-12-18T12:18:26;15.52;;;5.82;;
75932;SDS011;64803;52.356;5.310;2022-12-18T12:21:15;18.40;;;6.80;;
75932;SDS011;64803;52.356;5.310;2022-12-18T12:24:02;13.77;;;5.32;;
75932;SDS011;64803;52.356;5.310;2022-12-18T12:26:41;13.27;;;5.43;;
75932;SDS011;64803;52.356;5.310;2022-12-18T12:34:37;17.75;;;6.78;;
75932;SDS011;64803;52.356;5.310;2022-12-18T12:40:11;12.23;;;5.15;;
75932;SDS011;64803;52.356;5.310;2022-12-18T12:42:44;15.70;;;6.22;;
75932;SDS011;64803;52.356;5.310;2022-12-18T12:45:40;17.63;;;7.40;;
75932;SDS011;64803;52.356;5.310;2022-12-18T12:48:23;20.67;;;7.90;;
75932;SDS011;64803;52.356;5.310;2022-12-18T12:51:00;10.65;;;4.30;;
75932;SDS011;64803;52.356;5.310;2022-12-18T12:53:33;16.90;;;6.70;;
75932;SDS011;64803;52.356;5.310;2022-12-18T12:56:02;19.38;;;8.27;;
75932;SDS011;64803;52.356;5.310;2022-12-18T13:01:16;15.30;;;5.97;;
75932;SDS011;64803;52.356;5.310;2022-12-18T13:03:46;17.05;;;6.45;;
75932;SDS011;64803;52.356;5.310;2022-12-18T13:06:37;17.70;;;6.85;;
75932;SDS011;64803;52.356;5.310;2022-12-18T13:09:22;13.70;;;6.07;;
75932;SDS011;64803;52.356;5.310;2022-12-18T13:11:48;19.40;;;7.00;;
75932;SDS011;64803;52.356;5.310;2022-12-18T13:14:34;18.15;;;6.82;;
75932;SDS011;64803;52.356;5.310;2022-12-18T13:19:50;18.52;;;6.32;;
75932;SDS011;64803;52.356;5.310;2022-12-18T13:22:22;18.20;;;7.10;;
75932;SDS011;64803;52.356;5.310;2022-12-18T13:24:55;19.58;;;8.05;;
75932;SDS011;64803;52.356;5.310;2022-12-18T13:35:41;18.38;;;7.88;;
75932;SDS011;64803;52.356;5.310;2022-12-18T13:40:57;20.13;;;7.03;;
75932;SDS011;64803;52.356;5.310;2022-12-18T13:48:29;17.83;;;6.80;;
75932;SDS011;64803;52.356;5.310;2022-12-18T13:51:05;15.32;;;6.38;;
75932;SDS011;64803;52.356;5.310;2022-12-18T13:53:48;14.45;;;5.35;;
75932;SDS011;64803;52.356;5.310;2022-12-18T13:56:17;16.23;;;6.75;;
75932;SDS011;64803;52.356;5.310;2022-12-18T13:59:02;13.63;;;5.05;;
75932;SDS011;64803;52.356;5.310;2022-12-18T14:01:36;16.98;;;7.60;;
75932;SDS011;64803;52.356;5.310;2022-12-18T14:04:10;19.02;;;6.93;;
75932;SDS011;64803;52.356;5.310;2022-12-18T14:06:43;16.10;;;6.82;;
75932;SDS011;64803;52.356;5.310;2022-12-18T14:09:30;18.70;;;7.07;;
75932;SDS011;64803;52.356;5.310;2022-12-18T14:12:00;19.25;;;8.60;;
75932;SDS011;64803;52.356;5.310;2022-12-18T14:17:14;17.35;;;7.00;;
75932;SDS011;64803;52.356;5.310;2022-12-18T14:19:42;16.85;;;6.47;;
75932;SDS011;64803;52.356;5.310;2022-12-18T14:22:17;14.13;;;6.32;;
75932;SDS011;64803;52.356;5.310;2022-12-18T14:24:47;20.90;;;6.80;;
75932;SDS011;64803;52.356;5.310;2022-12-18T14:27:51;15.57;;;5.82;;
75932;SDS011;64803;52.356;5.310;2022-12-18T14:35:51;16.73;;;6.03;;
75932;SDS011;64803;52.356;5.310;2022-12-18T14:40:54;15.40;;;6.53;;
75932;SDS011;64803;52.356;5.310;2022-12-18T14:43:25;18.45;;;7.55;;
75932;SDS011;64803;52.356;5.310;2022-12-18T14:45:54;16.00;;;6.45;;
75932;SDS011;64803;52.356;5.310;2022-12-18T14:48:22;20.45;;;7.07;;
75932;SDS011;64803;52.356;5.310;2022-12-18T14:51:06;16.45;;;6.72;;
75932;SDS011;64803;52.356;5.310;2022-12-18T14:56:34;19.00;;;7.03;;
75932;SDS011;64803;52.356;5.310;2022-12-18T14:59:03;15.43;;;7.15;;
75932;SDS011;64803;52.356;5.310;2022-12-18T15:01:35;17.92;;;7.38;;
75932;SDS011;64803;52.356;5.310;2022-12-18T15:04:03;18.17;;;7.20;;
75932;SDS011;64803;52.356;5.310;2022-12-18T15:09:03;15.90;;;7.13;;
75932;SDS011;64803;52.356;5.310;2022-12-18T15:11:46;18.65;;;7.53;;
75932;SDS011;64803;52.356;5.310;2022-12-18T15:17:05;23.02;;;10.07;;
75932;SDS011;64803;52.356;5.310;2022-12-18T15:19:41;19.05;;;8.18;;
75932;SDS011;64803;52.356;5.310;2022-12-18T15:22:22;18.10;;;7.88;;
75932;SDS011;64803;52.356;5.310;2022-12-18T15:27:31;20.75;;;8.32;;
75932;SDS011;64803;52.356;5.310;2022-12-18T15:32:39;19.60;;;8.20;;
75932;SDS011;64803;52.356;5.310;2022-12-18T15:37:48;24.92;;;9.15;;
75932;SDS011;64803;52.356;5.310;2022-12-18T15:40:17;20.00;;;7.93;;
75932;SDS011;64803;52.356;5.310;2022-12-18T15:42:44;19.90;;;8.23;;
75932;SDS011;64803;52.356;5.310;2022-12-18T15:47:56;15.90;;;5.18;;
75932;SDS011;64803;52.356;5.310;2022-12-18T15:50:22;9.75;;;3.67;;
75932;SDS011;64803;52.356;5.310;2022-12-18T15:52:49;18.27;;;7.72;;
75932;SDS011;64803;52.356;5.310;2022-12-18T15:55:22;18.23;;;7.30;;
75932;SDS011;64803;52.356;5.310;2022-12-18T15:58:08;18.38;;;8.05;;
75932;SDS011;64803;52.356;5.310;2022-12-18T16:00:36;18.80;;;7.88;;
75932;SDS011;64803;52.356;5.310;2022-12-18T16:05:30;15.73;;;7.32;;
75932;SDS011;64803;52.356;5.310;2022-12-18T16:07:57;19.33;;;6.18;;
75932;SDS011;64803;52.356;5.310;2022-12-18T16:10:24;19.02;;;7.78;;
75932;SDS011;64803;52.356;5.310;2022-12-18T16:12:53;19.67;;;7.40;;
75932;SDS011;64803;52.356;5.310;2022-12-18T16:15:19;18.13;;;7.63;;
75932;SDS011;64803;52.356;5.310;2022-12-18T16:17:46;15.40;;;6.15;;
75932;SDS011;64803;52.356;5.310;2022-12-18T16:20:13;19.23;;;8.15;;
75932;SDS011;64803;52.356;5.310;2022-12-18T16:22:41;20.95;;;9.63;;
75932;SDS011;64803;52.356;5.310;2022-12-18T16:25:22;20.42;;;7.95;;
75932;SDS011;64803;52.356;5.310;2022-12-18T16:27:53;22.95;;;8.77;;
75932;SDS011;64803;52.356;5.310;2022-12-18T16:30:22;22.10;;;8.15;;
75932;SDS011;64803;52.356;5.310;2022-12-18T16:32:52;21.80;;;8.77;;
75932;SDS011;64803;52.356;5.310;2022-12-18T16:35:18;22.08;;;8.70;;
75932;SDS011;64803;52.356;5.310;2022-12-18T16:37:44;18.13;;;7.15;;
75932;SDS011;64803;52.356;5.310;2022-12-18T16:40:14;16.02;;;6.63;;
75932;SDS011;64803;52.356;5.310;2022-12-18T16:42:41;23.38;;;7.53;;
75932;SDS011;64803;52.356;5.310;2022-12-18T16:45:10;14.68;;;6.18;;
75932;SDS011;64803;52.356;5.310;2022-12-18T16:47:38;23.52;;;8.45;;
75932;SDS011;64803;52.356;5.310;2022-12-18T16:50:05;15.40;;;7.35;;
75932;SDS011;64803;52.356;5.310;2022-12-18T16:52:32;18.23;;;7.97;;
75932;SDS011;64803;52.356;5.310;2022-12-18T16:54:58;18.30;;;7.05;;
75932;SDS011;64803;52.356;5.310;2022-12-18T16:57:24;18.60;;;8.13;;
75932;SDS011;64803;52.356;5.310;2022-12-18T16:59:50;19.88;;;7.93;;
75932;SDS011;64803;52.356;5.310;2022-12-18T17:04:52;24.70;;;9.02;;
75932;SDS011;64803;52.356;5.310;2022-12-18T17:07:19;21.25;;;8.35;;
75932;SDS011;64803;52.356;5.310;2022-12-18T17:09:45;17.98;;;7.40;;